Date,TemperatureHighF,TemperatureAvgF,TemperatureLowF,DewpointHighF,DewpointAvgF,DewpointLowF,HumidityHigh,HumidityAvg,HumidityLow,PressureMaxIn,PressureMinIn,WindSpeedMaxMPH,WindSpeedAvgMPH,GustSpeedMaxMPH,PrecipitationSumIn
2013-2-1,34,29,24,18,14,8,62,52,34,30.30,29.87,12,6,24,0.00
2013-2-2,35,26,19,22,11,6,88,54,33,30.37,30.11,8,4,14,0.00
2013-2-3,33,27,22,25,22,19,93,82,67,30.11,29.84,5,1,11,0.03
2013-2-4,34,28,23,24,15,11,87,59,41,30.05,29.87,11,5,19,0.00
2013-2-5,34,32,27,32,29,24,93,90,85,30.02,29.93,4,1,19,0.01
2013-2-6,44,35,30,31,25,10,94,69,41,30.41,29.96,11,4,16,0.01
2013-2-7,39,31,24,35,19,10,83,62,42,30.55,30.35,3,1,11,0.00
2013-2-8,41,37,29,40,35,28,98,92,83,30.34,29.65,11,6,21,1.05
2013-2-9,36,29,22,30,21,12,97,75,48,30.39,29.79,13,7,24,0.13
2013-2-10,37,26,13,26,17,9,87,68,40,30.54,30.38,5,1,11,0.29
2013-2-11,49,41,31,48,39,26,98,94,80,30.39,29.70,8,1,14,0.38
2013-2-12,49,42,33,42,30,26,98,64,46,30.02,29.78,12,5,20,0.00
2013-2-13,43,35,26,33,28,23,99,77,59,30.01,29.73,3,1,10,0.04
2013-2-14,49,39,31,38,34,30,97,84,50,30.07,29.74,6,2,10,0.06
2013-2-15,58,44,33,42,36,30,93,75,48,30.08,29.96,6,2,13,0.00
2013-2-16,45,38,33,35,30,19,90,73,57,30.00,29.77,10,5,21,0.00
2013-2-17,36,29,20,20,10,3,59,44,30,30.08,29.72,14,9,26,0.00
2013-2-18,39,28,18,16,9,3,57,45,30,30.32,30.08,13,6,23,0.00
2013-2-19,53,40,27,45,32,15,95,75,48,30.27,29.73,12,3,23,0.24
2013-2-20,39,32,26,29,17,11,69,53,40,30.06,29.78,13,8,25,0.00
2013-2-21,39,30,24,18,16,12,68,55,40,30.32,30.04,14,8,27,0.00
2013-2-22,40,33,26,36,26,18,86,75,66,30.44,30.30,6,2,17,0.00
2013-2-23,45,41,38,44,40,36,97,95,86,30.31,29.83,6,3,18,0.52
2013-2-24,52,41,34,41,34,24,97,78,53,30.03,29.78,11,5,16,0.02
2013-2-25,48,38,29,31,28,23,83,65,49,30.28,30.03,7,3,12,0.00
2013-2-26,45,37,27,38,33,25,95,85,73,30.33,29.88,7,3,17,0.18
2013-2-27,55,46,40,53,43,37,98,91,72,29.90,29.52,8,4,18,0.49
2013-2-28,53,44,38,42,36,30,94,74,53,29.68,29.59,7,2,13,0.01